Time;durP1;ratioP1;P1;durP2;ratioP2;P2;SDS_P1;SDS_P2;PMS_P1;PMS_P2;Temp;Humidity;BMP_temperature;BMP_pressure;BME280_temperature;BME280_humidity;BME280_pressure;Samples;Min_cycle;Max_cycle;Signal;HPM_P1;HPM_P2
2022/07/26 00:00:12;;;;;;;10.85;1.60;;;19.50;86.30;;;;;;5058141;28;20473;-83
2022/07/26 00:02:41;;;;;;;12.27;2.08;;;19.50;86.30;;;;;;5074961;28;20032;-83
2022/07/26 00:05:08;;;;;;;12.52;2.33;;;19.50;86.50;;;;;;5075942;28;20029;-84
2022/07/26 00:07:33;;;;;;;8.25;1.40;;;19.50;86.50;;;;;;5075994;28;20028;-84
2022/07/26 00:09:59;;;;;;;7.80;1.15;;;19.50;86.60;;;;;;5075699;28;20043;-84
2022/07/26 00:12:25;;;;;;;8.98;1.60;;;19.50;86.60;;;;;;5057942;28;20468;-83
2022/07/26 00:14:51;;;;;;;8.90;1.35;;;19.50;86.80;;;;;;5057923;28;20025;-82
2022/07/26 00:17:17;;;;;;;10.65;1.73;;;19.50;86.60;;;;;;5057795;28;20021;-83
2022/07/26 00:19:42;;;;;;;11.90;2.15;;;19.50;86.60;;;;;;5075533;28;20073;-83
2022/07/26 00:24:52;;;;;;;;;;;19.50;86.80;;;;;;5075019;28;20044;-83
2022/07/26 00:27:17;;;;;;;4.70;1.10;;;19.50;86.90;;;;;;5075402;28;19908;-83
2022/07/26 00:29:43;;;;;;;9.85;1.38;;;19.40;86.60;;;;;;5057532;28;20473;-84
2022/07/26 00:32:09;;;;;;;8.15;1.65;;;19.50;86.70;;;;;;5075581;28;20060;-84
2022/07/26 00:34:34;;;;;;;7.35;1.35;;;19.50;86.80;;;;;;5057471;28;20029;-83
2022/07/26 00:37:00;;;;;;;6.47;1.20;;;19.50;86.80;;;;;;5057510;28;20033;-84
2022/07/26 00:39:27;;;;;;;5.32;1.52;;;19.50;87.00;;;;;;5057706;28;20035;-83
2022/07/26 00:41:53;;;;;;;5.38;1.00;;;19.50;86.90;;;;;;5057333;28;20024;-84
2022/07/26 00:44:19;;;;;;;5.85;1.23;;;19.50;87.00;;;;;;5057265;28;20473;-85
2022/07/26 00:46:45;;;;;;;10.02;1.40;;;19.50;86.90;;;;;;5075380;28;20046;-83
2022/07/26 00:49:11;;;;;;;9.85;1.08;;;19.50;87.00;;;;;;5074970;28;20031;-82
2022/07/26 00:51:37;;;;;;;6.93;1.33;;;19.50;87.00;;;;;;5057443;28;20021;-83
2022/07/26 00:54:04;;;;;;;14.20;1.77;;;19.50;87.00;;;;;;5057164;28;20036;-82
2022/07/26 00:56:32;;;;;;;9.60;1.40;;;19.50;87.00;;;;;;5057245;28;20031;-82
2022/07/26 00:58:57;;;;;;;5.47;1.20;;;19.50;87.00;;;;;;5074714;28;20079;-83
2022/07/26 01:01:23;;;;;;;7.93;1.50;;;19.40;86.90;;;;;;5074885;28;20063;-84
2022/07/26 01:03:53;;;;;;;8.82;1.23;;;19.40;86.90;;;;;;5056885;28;20546;-84
2022/07/26 01:06:20;;;;;;;7.85;1.00;;;19.30;87.00;;;;;;5074570;28;20033;-83
2022/07/26 01:08:45;;;;;;;7.15;1.20;;;19.40;87.20;;;;;;5074475;28;20051;-83
2022/07/26 01:11:11;;;;;;;6.20;1.05;;;19.30;87.20;;;;;;5056573;28;20484;-83
2022/07/26 01:13:44;;;;;;;6.97;1.60;;;19.30;87.20;;;;;;5074552;28;20381;-83
2022/07/26 01:16:10;;;;;;;7.15;1.17;;;19.30;87.40;;;;;;5074484;28;20024;-83
2022/07/26 01:18:35;;;;;;;6.05;0.95;;;19.30;87.50;;;;;;5040054;28;20040;-84
2022/07/26 01:21:02;;;;;;;7.00;1.10;;;19.30;87.60;;;;;;5056491;28;20029;-82
2022/07/26 01:23:28;;;;;;;6.85;1.15;;;19.30;87.70;;;;;;5073180;28;20099;-82
2022/07/26 01:25:53;;;;;;;5.05;1.10;;;19.30;87.70;;;;;;5074393;28;20060;-82
2022/07/26 01:28:19;;;;;;;7.57;1.20;;;19.30;87.80;;;;;;5056398;28;20024;-83
2022/07/26 01:30:45;;;;;;;8.55;1.30;;;19.20;87.80;;;;;;5056391;28;20033;-83
2022/07/26 01:33:10;;;;;;;7.05;1.17;;;19.20;87.90;;;;;;5056543;28;20063;-83
2022/07/26 01:35:36;;;;;;;7.88;1.10;;;19.20;87.90;;;;;;5056126;28;20032;-84
2022/07/26 01:38:02;;;;;;;7.90;1.13;;;19.10;88.20;;;;;;5056159;28;20537;-83
2022/07/26 01:40:27;;;;;;;8.95;1.73;;;19.20;88.50;;;;;;5074028;28;20036;-84
2022/07/26 01:42:53;;;;;;;11.45;1.83;;;19.10;88.50;;;;;;5073905;28;20385;-83
2022/07/26 01:45:18;;;;;;;12.73;2.35;;;19.00;88.70;;;;;;5056084;28;20381;-83
2022/07/26 01:47:48;;;;;;;10.20;1.23;;;19.00;89.00;;;;;;5074020;28;20028;-84
2022/07/26 01:50:15;;;;;;;8.80;1.30;;;19.00;89.10;;;;;;5055883;28;20035;-84
2022/07/26 01:52:41;;;;;;;7.13;1.50;;;19.00;89.20;;;;;;5072580;28;20562;-83
2022/07/26 01:55:07;;;;;;;5.60;1.20;;;18.90;89.30;;;;;;5073808;28;20060;-83
2022/07/26 01:57:32;;;;;;;8.02;1.67;;;18.90;89.60;;;;;;5055788;28;20029;-84
2022/07/26 01:59:58;;;;;;;9.15;1.60;;;18.90;89.70;;;;;;5073740;28;20388;-84
2022/07/26 02:02:24;;;;;;;9.70;1.10;;;18.90;90.00;;;;;;5073789;28;20043;-83
2022/07/26 02:04:58;;;;;;;11.57;1.48;;;18.90;90.10;;;;;;5074285;28;20025;-83
2022/07/26 02:07:25;;;;;;;13.63;2.08;;;18.90;90.10;;;;;;5073569;28;20028;-84
2022/07/26 02:09:51;;;;;;;8.52;1.63;;;18.90;90.30;;;;;;5073505;28;20099;-85
2022/07/26 02:12:17;;;;;;;13.90;2.03;;;18.90;90.30;;;;;;5073797;28;20113;-85
2022/07/26 02:14:42;;;;;;;12.90;1.95;;;18.80;90.40;;;;;;5055688;28;20033;-84
2022/07/26 02:17:08;;;;;;;9.18;1.88;;;18.80;90.60;;;;;;5073511;28;20434;-84
2022/07/26 02:19:34;;;;;;;9.40;1.75;;;18.80;90.90;;;;;;5073583;28;20067;-84
2022/07/26 02:22:00;;;;;;;8.35;1.70;;;18.80;91.00;;;;;;5073459;28;20071;-84
2022/07/26 02:24:29;;;;;;;8.48;1.88;;;18.80;91.10;;;;;;5072290;28;20036;-83
2022/07/26 02:26:57;;;;;;;8.85;1.80;;;18.80;91.20;;;;;;5073452;28;20025;-85
2022/07/26 02:29:23;;;;;;;9.82;1.80;;;18.70;91.20;;;;;;5055546;28;20033;-83
2022/07/26 02:31:48;;;;;;;8.13;1.52;;;18.80;91.30;;;;;;5073693;28;20073;-84
2022/07/26 02:34:14;;;;;;;10.52;1.77;;;18.80;91.50;;;;;;5073211;28;20041;-83
2022/07/26 02:36:40;;;;;;;9.10;2.10;;;18.80;91.60;;;;;;5055214;28;20123;-83
2022/07/26 02:39:06;;;;;;;8.85;2.20;;;18.70;91.70;;;;;;5073359;28;20061;-84
2022/07/26 02:41:31;;;;;;;7.43;1.45;;;18.70;92.00;;;;;;5055264;28;20020;-84
2022/07/26 02:43:57;;;;;;;10.55;1.73;;;18.70;92.20;;;;;;5073195;28;20028;-83
2022/07/26 02:46:23;;;;;;;8.30;1.67;;;18.70;92.20;;;;;;5073176;28;20028;-84
2022/07/26 02:48:49;;;;;;;14.52;2.40;;;18.60;92.20;;;;;;5076298;28;20135;-83
2022/07/26 02:51:15;;;;;;;9.68;2.13;;;18.70;92.30;;;;;;5075936;28;20017;-83
2022/07/26 02:53:40;;;;;;;12.52;2.08;;;18.70;92.50;;;;;;5059233;28;20174;-83
2022/07/26 02:56:06;;;;;;;6.97;1.50;;;18.60;92.90;;;;;;5059490;28;20478;-83
2022/07/26 02:58:32;;;;;;;7.00;2.08;;;18.60;92.70;;;;;;5077248;28;20390;-84
2022/07/26 03:00:57;;;;;;;7.68;1.75;;;18.60;92.80;;;;;;5076964;28;20179;-83
2022/07/26 03:03:23;;;;;;;10.77;2.25;;;18.60;92.90;;;;;;5059219;28;20033;-83
2022/07/26 03:05:49;;;;;;;11.15;2.20;;;18.60;93.20;;;;;;5059126;28;20028;-84
2022/07/26 03:08:14;;;;;;;6.93;2.10;;;18.60;93.20;;;;;;5076964;28;20029;-82
2022/07/26 03:10:40;;;;;;;5.18;1.70;;;18.60;93.30;;;;;;5076813;28;20098;-84
2022/07/26 03:13:06;;;;;;;11.98;2.03;;;18.60;93.50;;;;;;5076768;28;20082;-83
2022/07/26 03:15:31;;;;;;;7.25;2.47;;;18.50;93.60;;;;;;5076766;28;20427;-84
2022/07/26 03:17:57;;;;;;;9.05;2.40;;;18.60;94.00;;;;;;5076895;28;20029;-83
2022/07/26 03:20:23;;;;;;;8.25;2.40;;;18.50;93.90;;;;;;5076760;28;20056;-82
2022/07/26 03:22:48;;;;;;;9.25;2.00;;;18.50;94.20;;;;;;5058589;28;20024;-82
2022/07/26 03:25:14;;;;;;;9.00;2.67;;;18.60;94.20;;;;;;5058850;28;20469;-83
2022/07/26 03:27:40;;;;;;;11.07;3.15;;;18.50;94.40;;;;;;5075241;28;20016;-83
2022/07/26 03:30:07;;;;;;;8.50;2.42;;;18.60;94.60;;;;;;5076840;28;20107;-84
2022/07/26 03:32:32;;;;;;;10.82;2.97;;;18.60;94.60;;;;;;5076981;28;20024;-84
2022/07/26 03:34:58;;;;;;;8.85;2.13;;;18.50;94.90;;;;;;5076455;28;20032;-84
2022/07/26 03:37:24;;;;;;;10.05;2.53;;;18.60;94.90;;;;;;5076743;28;20472;-83
2022/07/26 03:39:49;;;;;;;13.73;2.97;;;18.60;94.90;;;;;;5076310;28;20036;-83
2022/07/26 03:42:16;;;;;;;12.65;2.40;;;18.50;95.00;;;;;;5058336;28;20538;-82
2022/07/26 03:44:42;;;;;;;8.50;2.10;;;18.60;95.10;;;;;;5076297;28;20380;-84
2022/07/26 03:47:07;;;;;;;8.43;2.72;;;18.50;95.30;;;;;;5074892;28;20023;-83
2022/07/26 03:49:34;;;;;;;11.10;2.78;;;18.50;95.40;;;;;;5076114;28;20388;-83
2022/07/26 03:51:59;;;;;;;10.70;2.83;;;18.50;95.30;;;;;;5076252;28;20118;-83
2022/07/26 03:54:25;;;;;;;10.70;2.88;;;18.50;95.50;;;;;;5058198;28;20111;-83
2022/07/26 03:56:50;;;;;;;8.00;2.50;;;18.40;95.50;;;;;;5058166;28;20044;-83
2022/07/26 03:59:17;;;;;;;10.05;2.63;;;18.40;95.60;;;;;;5075964;28;20416;-83
2022/07/26 04:01:44;;;;;;;13.40;3.08;;;18.40;95.60;;;;;;5074521;28;20143;-83
2022/07/26 04:04:11;;;;;;;9.23;2.20;;;18.30;95.70;;;;;;5075946;28;20480;-83
2022/07/26 04:06:38;;;;;;;7.47;2.47;;;18.30;95.70;;;;;;5075843;28;20382;-83
2022/07/26 04:09:05;;;;;;;17.60;2.92;;;18.40;95.90;;;;;;5058008;28;20434;-83
2022/07/26 04:11:31;;;;;;;8.18;2.50;;;18.30;95.90;;;;;;5075685;28;20487;-82
2022/07/26 04:13:57;;;;;;;10.48;2.67;;;18.30;95.90;;;;;;5057974;28;20032;-82
2022/07/26 04:16:23;;;;;;;7.80;2.67;;;18.20;96.00;;;;;;5075557;28;20032;-83
2022/07/26 04:18:49;;;;;;;9.60;3.13;;;18.20;96.10;;;;;;5075571;28;20047;-82
2022/07/26 04:21:15;;;;;;;8.77;2.83;;;18.20;96.20;;;;;;5074250;28;20060;-83
2022/07/26 04:23:40;;;;;;;12.45;3.45;;;18.10;96.40;;;;;;5075556;28;20028;-83
2022/07/26 04:26:06;;;;;;;8.10;2.45;;;18.10;96.50;;;;;;5075372;28;20036;-83
2022/07/26 04:28:32;;;;;;;10.55;2.53;;;18.10;96.60;;;;;;5075555;28;20032;-82
2022/07/26 04:30:59;;;;;;;9.02;2.45;;;18.10;96.70;;;;;;5074147;28;20027;-83
2022/07/26 04:33:25;;;;;;;11.23;3.05;;;18.10;96.80;;;;;;5076361;28;20020;-82
2022/07/26 04:35:51;;;;;;;8.70;2.40;;;18.10;96.80;;;;;;5075299;28;20099;-83
2022/07/26 04:38:17;;;;;;;11.60;2.55;;;18.10;96.80;;;;;;5075377;28;20104;-82
2022/07/26 04:40:42;;;;;;;10.52;2.88;;;18.10;96.90;;;;;;5075302;28;20052;-84
2022/07/26 04:43:09;;;;;;;10.00;3.05;;;18.10;97.00;;;;;;5074216;28;20060;-84
2022/07/26 04:45:34;;;;;;;12.45;3.10;;;18.10;97.10;;;;;;5062314;28;20469;-85
2022/07/26 04:48:00;;;;;;;10.75;2.95;;;18.10;97.20;;;;;;5075038;28;20020;-85
2022/07/26 04:50:29;;;;;;;9.50;2.78;;;18.10;97.30;;;;;;5057086;28;20032;-85
2022/07/26 04:52:55;;;;;;;10.48;2.78;;;18.10;97.30;;;;;;5085743;28;20158;-85
2022/07/26 04:55:21;;;;;;;10.35;3.03;;;18.00;97.50;;;;;;5055210;28;20078;-84
2022/07/26 04:57:47;;;;;;;10.60;2.97;;;18.10;97.50;;;;;;5059842;28;20055;-84
2022/07/26 05:00:15;;;;;;;10.95;2.70;;;18.10;97.60;;;;;;5074922;28;20107;-86
2022/07/26 05:02:40;;;;;;;12.70;3.08;;;18.10;97.60;;;;;;5074797;28;20024;-85
2022/07/26 05:05:07;;;;;;;8.88;2.72;;;18.10;97.60;;;;;;5056850;28;20051;-84
2022/07/26 05:07:39;;;;;;;8.93;2.83;;;18.20;97.70;;;;;;5057080;28;20064;-83
2022/07/26 05:10:06;;;;;;;7.88;3.05;;;18.20;97.80;;;;;;5074236;28;20025;-83
2022/07/26 05:12:31;;;;;;;10.35;2.60;;;18.20;97.80;;;;;;5056894;28;20083;-83
2022/07/26 05:14:57;;;;;;;7.88;2.88;;;18.20;97.80;;;;;;5074947;28;20032;-83
2022/07/26 05:17:22;;;;;;;8.13;2.38;;;18.20;97.80;;;;;;5056974;28;20104;-83
2022/07/26 05:19:48;;;;;;;12.77;2.80;;;18.20;97.80;;;;;;5073502;28;20059;-85
2022/07/26 05:22:13;;;;;;;6.80;2.30;;;18.20;97.90;;;;;;5056383;28;20115;-83
2022/07/26 05:24:39;;;;;;;8.95;2.60;;;18.30;97.80;;;;;;5056708;28;20024;-84
2022/07/26 05:27:05;;;;;;;7.32;2.40;;;18.30;97.80;;;;;;5074928;28;20037;-84
2022/07/26 05:29:31;;;;;;;8.48;2.45;;;18.30;97.80;;;;;;5074705;28;20078;-85
2022/07/26 05:31:56;;;;;;;9.77;2.05;;;18.30;97.90;;;;;;5056533;28;20037;-84
2022/07/26 05:34:23;;;;;;;10.07;2.05;;;18.40;97.80;;;;;;5056789;28;20028;-85
2022/07/26 05:36:49;;;;;;;6.35;2.28;;;18.40;98.00;;;;;;5074365;28;20025;-86
2022/07/26 05:39:15;;;;;;;10.93;2.78;;;18.40;98.00;;;;;;5056670;28;20361;-85
2022/07/26 05:41:40;;;;;;;10.15;1.98;;;18.40;97.70;;;;;;5056682;28;20048;-85
2022/07/26 05:44:06;;;;;;;7.53;1.80;;;18.50;97.70;;;;;;5056598;28;20016;-85
2022/07/26 05:46:32;;;;;;;8.98;2.38;;;18.50;97.60;;;;;;5074382;28;20491;-85
2022/07/26 05:48:57;;;;;;;6.28;1.67;;;18.50;97.60;;;;;;5073771;28;20107;-86
2022/07/26 05:51:23;;;;;;;7.25;1.55;;;18.50;97.60;;;;;;5056986;28;20025;-83
2022/07/26 05:53:49;;;;;;;19.35;2.60;;;18.60;97.60;;;;;;5074171;28;20090;-86
2022/07/26 05:56:14;;;;;;;6.68;1.90;;;18.60;97.60;;;;;;5056368;28;20064;-84
2022/07/26 05:58:40;;;;;;;10.48;2.30;;;18.60;97.70;;;;;;5056385;28;20054;-84
2022/07/26 06:01:06;;;;;;;6.80;1.60;;;18.70;97.70;;;;;;5074122;28;20033;-86
2022/07/26 06:03:31;;;;;;;7.18;1.35;;;18.80;97.50;;;;;;5039705;28;20032;-86
2022/07/26 06:05:57;;;;;;;6.80;1.52;;;18.80;97.50;;;;;;5056344;28;20484;-84
2022/07/26 06:08:25;;;;;;;8.70;1.65;;;18.90;97.40;;;;;;5056002;28;20031;-75
2022/07/26 06:10:52;;;;;;;8.13;1.52;;;18.90;97.20;;;;;;5058448;28;20028;-75
2022/07/26 06:13:18;;;;;;;9.68;1.20;;;19.00;97.00;;;;;;5073557;28;20028;-76
2022/07/26 06:15:44;;;;;;;5.35;1.17;;;19.10;96.80;;;;;;5073851;28;20461;-76
2022/07/26 06:18:11;;;;;;;5.70;1.00;;;19.20;96.60;;;;;;5073658;28;20020;-76
2022/07/26 06:20:41;;;;;;;3.35;0.95;;;19.20;96.30;;;;;;5073796;28;20024;-75
2022/07/26 06:23:07;;;;;;;3.25;0.98;;;19.30;96.20;;;;;;5072722;28;20033;-76
2022/07/26 06:25:32;;;;;;;4.00;0.88;;;19.30;95.90;;;;;;5073665;28;20066;-75
2022/07/26 06:27:58;;;;;;;7.18;1.50;;;19.40;95.50;;;;;;5073449;28;20052;-75
2022/07/26 06:30:24;;;;;;;3.85;1.00;;;19.40;95.30;;;;;;5073504;28;20029;-76
2022/07/26 06:32:49;;;;;;;4.22;1.00;;;19.40;95.10;;;;;;5055702;28;20024;-75
2022/07/26 06:35:15;;;;;;;8.00;1.30;;;19.50;95.00;;;;;;5073403;28;20040;-76
2022/07/26 06:37:42;;;;;;;4.20;1.17;;;19.50;94.90;;;;;;5073489;28;20029;-76
2022/07/26 06:40:09;;;;;;;5.88;1.00;;;19.50;94.90;;;;;;5073224;28;20027;-80
2022/07/26 06:42:36;;;;;;;2.83;0.70;;;19.50;94.70;;;;;;5055148;28;20082;-75
2022/07/26 06:45:03;;;;;;;3.88;0.82;;;19.60;94.60;;;;;;5073088;28;20016;-76
2022/07/26 06:47:28;;;;;;;2.28;0.73;;;19.60;94.60;;;;;;5073036;28;20032;-76
2022/07/26 06:49:54;;;;;;;4.60;1.20;;;19.60;94.60;;;;;;5072995;28;20028;-76
2022/07/26 06:52:20;;;;;;;8.73;1.00;;;19.70;94.50;;;;;;5072728;28;20047;-75
2022/07/26 06:54:46;;;;;;;9.93;1.08;;;19.70;94.00;;;;;;5072828;28;20127;-75
2022/07/26 06:57:12;;;;;;;5.10;0.90;;;19.70;94.00;;;;;;5073223;28;20032;-76
2022/07/26 06:59:37;;;;;;;4.55;1.10;;;19.60;93.70;;;;;;5072310;28;20500;-75
2022/07/26 07:02:03;;;;;;;6.68;0.90;;;19.60;93.60;;;;;;5072262;28;20350;-76
2022/07/26 07:04:31;;;;;;;3.97;0.82;;;19.70;93.70;;;;;;5073323;28;20017;-76
2022/07/26 07:07:01;;;;;;;6.43;1.10;;;19.70;93.60;;;;;;5055098;28;20024;-76
2022/07/26 07:09:27;;;;;;;5.75;1.20;;;19.70;93.60;;;;;;5054987;28;20465;-77
2022/07/26 07:11:53;;;;;;;3.92;0.82;;;19.70;93.70;;;;;;5073597;28;20020;-76
2022/07/26 07:14:19;;;;;;;2.67;0.57;;;19.70;94.10;;;;;;5070035;28;20020;-76
2022/07/26 07:16:45;;;;;;;1.88;0.40;;;19.60;94.20;;;;;;5071797;28;20087;-76
2022/07/26 07:19:10;;;;;;;2.47;0.50;;;19.40;94.30;;;;;;5055554;28;20017;-87
2022/07/26 07:21:36;;;;;;;3.05;0.43;;;19.40;94.50;;;;;;5038715;28;20040;-87
2022/07/26 07:24:02;;;;;;;1.60;0.50;;;19.30;94.70;;;;;;5038868;28;20025;-86
2022/07/26 07:26:27;;;;;;;2.85;0.63;;;19.20;95.10;;;;;;5073269;28;20040;-86
2022/07/26 07:28:53;;;;;;;4.05;0.70;;;19.10;95.10;;;;;;5055915;28;20355;-86
2022/07/26 07:31:18;;;;;;;4.75;0.60;;;19.00;95.30;;;;;;5073437;28;20052;-87
2022/07/26 07:33:44;;;;;;;1.77;0.60;;;18.90;95.60;;;;;;5056672;28;20028;-86
2022/07/26 07:36:10;;;;;;;4.63;0.85;;;18.90;95.60;;;;;;5059458;28;20035;-86
2022/07/26 07:38:35;;;;;;;5.90;0.70;;;18.80;95.80;;;;;;5059562;28;20024;-86
2022/07/26 07:41:01;;;;;;;4.07;0.65;;;18.80;96.10;;;;;;5077025;28;20307;-86
2022/07/26 07:43:27;;;;;;;3.25;0.63;;;18.80;96.30;;;;;;5041938;28;20024;-86
2022/07/26 07:45:52;;;;;;;5.47;0.73;;;18.70;96.40;;;;;;5058070;28;20092;-87
2022/07/26 07:48:18;;;;;;;2.42;0.65;;;18.70;96.70;;;;;;5058321;28;20090;-86
2022/07/26 07:50:43;;;;;;;3.17;0.73;;;18.60;97.00;;;;;;5076230;28;20059;-88
2022/07/26 07:53:09;;;;;;;4.82;0.88;;;18.60;97.10;;;;;;5058561;28;20115;-84
2022/07/26 07:55:35;;;;;;;7.18;0.80;;;18.60;97.20;;;;;;5077005;28;20060;-86
2022/07/26 07:58:00;;;;;;;3.05;0.60;;;18.60;97.30;;;;;;5075097;28;20059;-86
2022/07/26 08:00:26;;;;;;;2.78;0.50;;;18.60;97.40;;;;;;5059073;28;20033;-87
2022/07/26 08:02:52;;;;;;;3.25;0.52;;;18.60;97.50;;;;;;5076107;28;20035;-87
2022/07/26 08:05:17;;;;;;;5.85;0.60;;;18.60;97.50;;;;;;5041326;28;20052;-87
2022/07/26 08:07:43;;;;;;;4.53;0.70;;;18.60;97.50;;;;;;5076134;28;20016;-86
2022/07/26 08:10:09;;;;;;;5.45;1.13;;;18.60;97.50;;;;;;5057614;28;20035;-89
2022/07/26 08:12:35;;;;;;;8.32;0.90;;;18.60;97.50;;;;;;5058725;28;20029;-89
2022/07/26 08:15:01;;;;;;;2.03;0.60;;;18.70;97.60;;;;;;5076269;28;20032;-88
2022/07/26 08:17:27;;;;;;;4.72;1.08;;;18.70;97.60;;;;;;5076526;28;20392;-87
2022/07/26 08:19:53;;;;;;;4.68;0.80;;;18.80;97.70;;;;;;5076040;28;20025;-87
2022/07/26 08:22:18;;;;;;;4.22;0.70;;;18.70;97.50;;;;;;5057592;28;20125;-86
2022/07/26 08:24:45;;;;;;;1.20;0.30;;;18.80;97.50;;;;;;5058513;28;20038;-84
2022/07/26 08:27:11;;;;;;;0.73;0.30;;;18.70;97.30;;;;;;5057320;28;20025;-86
2022/07/26 08:29:37;;;;;;;1.83;0.60;;;18.70;97.30;;;;;;5057852;28;20050;-87
2022/07/26 08:32:03;;;;;;;1.08;0.30;;;18.70;97.30;;;;;;5041340;28;20555;-87
2022/07/26 08:34:29;;;;;;;2.50;0.30;;;18.70;97.20;;;;;;5060291;28;20060;-86
2022/07/26 08:36:54;;;;;;;1.50;0.40;;;18.60;97.30;;;;;;5075282;28;20024;-87
2022/07/26 08:39:20;;;;;;;0.45;0.22;;;18.60;97.20;;;;;;5075792;28;20036;-88
2022/07/26 08:41:46;;;;;;;1.42;0.28;;;18.60;97.20;;;;;;5075670;28;20040;-87
2022/07/26 08:44:11;;;;;;;1.40;0.40;;;18.70;97.20;;;;;;5058380;28;20051;-86
2022/07/26 08:46:39;;;;;;;1.85;0.35;;;18.60;97.20;;;;;;5040482;28;20029;-87
2022/07/26 08:49:10;;;;;;;2.20;0.40;;;18.70;97.60;;;;;;5057702;28;20024;-86
2022/07/26 08:51:42;;;;;;;1.02;0.28;;;18.80;97.30;;;;;;5075471;28;20029;-87
2022/07/26 08:54:10;;;;;;;2.78;0.40;;;18.90;97.40;;;;;;5075000;28;20024;-87
2022/07/26 08:56:40;;;;;;;1.35;0.30;;;19.10;97.40;;;;;;5057115;28;20027;-88
2022/07/26 08:59:13;;;;;;;2.08;0.40;;;19.20;97.30;;;;;;5074822;28;20194;-87
2022/07/26 09:01:56;;;;;;;;;;;19.30;97.20;;;;;;5075480;28;20097;-86
2022/07/26 09:04:25;;;;;;;1.20;0.30;;;19.50;97.20;;;;;;5053984;28;19905;-87
2022/07/26 09:07:00;;;;;;;2.45;0.35;;;19.60;97.30;;;;;;5074313;28;20015;-87
2022/07/26 09:09:26;;;;;;;1.80;0.30;;;19.70;96.80;;;;;;5074786;28;20085;-86
2022/07/26 09:11:54;;;;;;;3.72;0.50;;;19.80;96.60;;;;;;5057451;28;20123;-88
2022/07/26 09:14:20;;;;;;;2.47;0.40;;;19.90;96.40;;;;;;5074820;28;20021;-88
2022/07/26 09:17:04;;;;;;;2.22;0.38;;;20.00;96.00;;;;;;5056946;28;20043;-88
2022/07/26 09:19:30;;;;;;;0.82;0.20;;;20.10;95.80;;;;;;5057193;28;20021;-87
2022/07/26 09:22:06;;;;;;;2.15;0.30;;;20.10;95.50;;;;;;5056946;28;20526;-87
2022/07/26 09:24:41;;;;;;;1.30;0.40;;;20.20;95.30;;;;;;5074785;28;20020;-87
2022/07/26 09:27:10;;;;;;;2.35;0.28;;;20.30;95.10;;;;;;5056810;28;20412;-86
2022/07/26 09:29:43;;;;;;;4.55;0.40;;;20.30;94.90;;;;;;5074390;28;20023;-87
2022/07/26 09:32:17;;;;;;;2.47;0.40;;;20.30;94.70;;;;;;5074226;28;20032;-87
2022/07/26 09:34:44;;;;;;;1.95;0.30;;;20.40;94.40;;;;;;5074339;28;20033;-87
2022/07/26 09:37:10;;;;;;;3.90;0.60;;;20.50;94.30;;;;;;5074470;28;20078;-86
2022/07/26 09:39:56;;;;;;;2.95;0.30;;;20.50;94.00;;;;;;5074239;28;20472;-87
2022/07/26 09:42:23;;;;;;;0.90;0.20;;;20.50;93.40;;;;;;5073903;28;20036;-76
2022/07/26 09:44:49;;;;;;;2.10;0.40;;;20.40;93.10;;;;;;5056092;28;20024;-76
2022/07/26 09:47:15;;;;;;;2.35;0.40;;;20.40;93.10;;;;;;5056264;28;20021;-76
2022/07/26 09:49:41;;;;;;;1.42;0.30;;;20.30;92.90;;;;;;5056091;28;20445;-76
2022/07/26 09:52:27;;;;;;;1.23;0.20;;;20.20;92.70;;;;;;5058653;28;20046;-75
2022/07/26 09:54:52;;;;;;;1.40;0.22;;;20.30;92.80;;;;;;5073399;28;20032;-76
2022/07/26 09:57:19;;;;;;;1.65;0.20;;;20.30;92.80;;;;;;5073897;28;20039;-75
2022/07/26 09:59:46;;;;;;;2.67;0.30;;;20.40;92.70;;;;;;5073410;28;20052;-76
2022/07/26 10:02:13;;;;;;;3.90;0.20;;;20.60;92.90;;;;;;5073689;28;20021;-76
2022/07/26 10:04:40;;;;;;;1.92;0.30;;;20.70;92.40;;;;;;5072699;28;20027;-76
2022/07/26 10:07:07;;;;;;;3.00;0.40;;;20.80;92.10;;;;;;5073103;28;20056;-76
2022/07/26 10:09:41;;;;;;;2.42;0.30;;;20.90;91.80;;;;;;5055589;28;20032;-76
2022/07/26 10:12:11;;;;;;;2.85;0.50;;;20.90;91.70;;;;;;5071959;28;20028;-75
2022/07/26 10:14:41;;;;;;;1.63;0.30;;;21.00;91.60;;;;;;5073513;28;20028;-76
2022/07/26 10:17:26;;;;;;;2.60;0.30;;;21.00;91.60;;;;;;5069833;28;20028;-75
2022/07/26 10:19:55;;;;;;;2.63;0.30;;;21.10;91.40;;;;;;5083444;28;20079;-76
2022/07/26 10:22:21;;;;;;;3.58;0.30;;;21.20;91.20;;;;;;5072276;28;20071;-75
2022/07/26 10:24:47;;;;;;;1.95;0.30;;;21.30;90.90;;;;;;5072527;28;20031;-75
2022/07/26 10:27:35;;;;;;;1.65;0.35;;;21.30;90.50;;;;;;5073460;28;20063;-77
2022/07/26 10:30:18;;;;;;;2.67;0.30;;;21.20;90.00;;;;;;5073245;28;20021;-77
2022/07/26 10:32:50;;;;;;;1.77;0.28;;;20.90;90.10;;;;;;5054782;28;20388;-78
2022/07/26 10:35:42;;;;;;;1.45;0.20;;;20.70;90.40;;;;;;5073190;28;20040;-76
2022/07/26 10:38:25;;;;;;;2.13;0.40;;;20.50;90.60;;;;;;5051838;28;20758;-76
2022/07/26 10:40:59;;;;;;;2.47;0.30;;;20.40;90.80;;;;;;5054134;28;20033;-76
2022/07/26 10:43:26;;;;;;;1.38;0.15;;;20.30;90.80;;;;;;5073295;28;20027;-77
2022/07/26 10:46:22;;;;;;;2.17;0.40;;;20.30;90.90;;;;;;5088762;28;20031;-76
2022/07/26 10:49:07;;;;;;;2.83;0.30;;;20.40;91.10;;;;;;5073082;28;20047;-76
2022/07/26 10:51:36;;;;;;;2.03;0.30;;;20.50;91.20;;;;;;5065900;28;20124;-76
2022/07/26 10:54:06;;;;;;;3.25;0.40;;;20.80;91.50;;;;;;5053031;28;20512;-76
2022/07/26 10:56:32;;;;;;;0.80;0.30;;;21.20;91.50;;;;;;5052357;28;20052;-76
2022/07/26 10:58:58;;;;;;;3.92;0.60;;;21.50;91.40;;;;;;5051671;28;20063;-76
2022/07/26 11:01:34;;;;;;;4.20;0.30;;;21.90;91.40;;;;;;5051747;28;20025;-76
2022/07/26 11:04:00;;;;;;;2.53;0.40;;;22.40;91.00;;;;;;5051669;28;20104;-76
2022/07/26 11:06:29;;;;;;;2.70;0.30;;;22.70;90.70;;;;;;5062568;28;20052;-76
2022/07/26 11:08:55;;;;;;;3.03;0.40;;;23.30;90.60;;;;;;5074621;28;20016;-76
2022/07/26 11:11:29;;;;;;;1.75;0.30;;;23.70;88.80;;;;;;5077066;28;20033;-77
2022/07/26 11:14:09;;;;;;;1.60;0.30;;;23.90;87.50;;;;;;5076996;28;20027;-76
2022/07/26 11:16:49;;;;;;;2.15;0.30;;;24.40;86.80;;;;;;5058970;28;20093;-76
2022/07/26 11:19:18;;;;;;;1.17;0.20;;;24.90;85.80;;;;;;5076545;28;20016;-77
2022/07/26 11:21:45;;;;;;;2.20;0.30;;;25.20;84.90;;;;;;5074329;28;20028;-76
2022/07/26 11:24:11;;;;;;;2.28;0.30;;;25.50;83.30;;;;;;5076038;28;20025;-76
2022/07/26 11:26:45;;;;;;;2.22;0.30;;;25.50;81.20;;;;;;5076233;28;20074;-76
2022/07/26 11:29:11;;;;;;;2.17;0.32;;;25.40;79.40;;;;;;5075806;28;20103;-76
2022/07/26 11:31:45;;;;;;;1.65;0.30;;;25.20;78.70;;;;;;5076543;28;20078;-76
2022/07/26 11:34:21;;;;;;;2.40;0.20;;;25.00;77.80;;;;;;5076375;28;20040;-76
2022/07/26 11:36:48;;;;;;;3.10;0.47;;;24.90;77.30;;;;;;5075556;28;20369;-76
2022/07/26 11:39:25;;;;;;;1.98;0.40;;;24.80;76.90;;;;;;5076515;28;20025;-77
2022/07/26 11:42:06;;;;;;;3.85;0.30;;;25.10;77.30;;;;;;5076240;28;20031;-76
2022/07/26 11:44:32;;;;;;;2.85;0.30;;;25.30;75.90;;;;;;5075979;28;20025;-76
2022/07/26 11:46:58;;;;;;;1.98;0.20;;;25.50;74.60;;;;;;5076040;28;20082;-76
2022/07/26 11:49:29;;;;;;;2.63;0.30;;;25.60;73.90;;;;;;5071088;28;20025;-76
2022/07/26 11:52:00;;;;;;;2.60;0.43;;;25.70;72.40;;;;;;5076187;28;20033;-77
2022/07/26 11:54:29;;;;;;;2.00;0.30;;;25.70;71.50;;;;;;5074761;28;20429;-77
2022/07/26 11:56:57;;;;;;;2.17;0.30;;;25.50;69.90;;;;;;5057745;28;20020;-84
2022/07/26 11:59:25;;;;;;;1.35;0.22;;;25.20;68.80;;;;;;5075732;28;20395;-76
2022/07/26 12:01:51;;;;;;;4.65;0.60;;;24.90;69.40;;;;;;5057767;28;20035;-77
2022/07/26 12:04:23;;;;;;;1.35;0.20;;;24.80;70.00;;;;;;5075831;28;20037;-77
2022/07/26 12:06:49;;;;;;;3.17;0.50;;;24.70;70.20;;;;;;5074838;28;20017;-76
2022/07/26 12:09:29;;;;;;;2.42;0.30;;;24.70;70.20;;;;;;5075711;28;20375;-77
2022/07/26 12:11:55;;;;;;;6.00;0.55;;;24.70;69.70;;;;;;5075495;28;20029;-77
2022/07/26 12:14:26;;;;;;;4.53;0.22;;;24.80;69.60;;;;;;5075845;28;20447;-76
2022/07/26 12:16:52;;;;;;;2.22;0.32;;;24.90;69.20;;;;;;5075296;28;20028;-76
2022/07/26 12:19:18;;;;;;;1.77;0.28;;;25.00;69.00;;;;;;5057383;28;20024;-76
2022/07/26 12:21:45;;;;;;;3.70;0.30;;;25.20;68.70;;;;;;5056651;28;20373;-76
2022/07/26 12:24:12;;;;;;;2.20;0.30;;;25.30;68.30;;;;;;5075299;28;20031;-76
2022/07/26 12:26:39;;;;;;;1.92;0.30;;;25.50;68.20;;;;;;5075235;28;20021;-76
2022/07/26 12:29:23;;;;;;;2.63;0.30;;;25.70;68.00;;;;;;5075351;28;20372;-76
2022/07/26 12:32:09;;;;;;;2.65;0.22;;;25.90;68.20;;;;;;5075611;28;20081;-76
2022/07/26 12:34:35;;;;;;;2.90;0.30;;;26.20;66.70;;;;;;5075239;28;20481;-76
2022/07/26 12:37:06;;;;;;;2.90;0.32;;;26.40;66.70;;;;;;5075460;28;20059;-76
2022/07/26 12:39:32;;;;;;;3.58;0.60;;;26.60;66.50;;;;;;5075237;28;20056;-76
2022/07/26 12:41:57;;;;;;;1.80;0.30;;;26.70;65.40;;;;;;5074982;28;20060;-76
2022/07/26 12:44:23;;;;;;;2.65;0.30;;;26.80;64.90;;;;;;5057783;28;20060;-76
2022/07/26 12:46:48;;;;;;;2.10;0.35;;;26.80;64.50;;;;;;5075141;28;20491;-76
2022/07/26 12:49:14;;;;;;;1.90;0.40;;;26.80;64.00;;;;;;5075284;28;20036;-75